createdAt,value
2023-03-29T00:00:15.939Z,97442.00
2023-03-29T00:03:04.641Z,97441.13
2023-03-29T00:05:35.145Z,97440.82
2023-03-29T00:08:04.383Z,97445.99
2023-03-29T00:10:34.376Z,97443.98
2023-03-29T00:13:02.771Z,97445.89
2023-03-29T00:15:30.862Z,97449.12
2023-03-29T00:17:58.905Z,97450.63
2023-03-29T00:20:28.841Z,97452.26
2023-03-29T00:22:56.823Z,97453.04
2023-03-29T00:25:24.776Z,97454.52
2023-03-29T00:27:52.819Z,97455.14
2023-03-29T00:30:20.994Z,97451.57
2023-03-29T00:32:48.905Z,97452.91
2023-03-29T00:35:17.240Z,97453.32
2023-03-29T00:37:47.207Z,97448.28
2023-03-29T00:40:15.624Z,97444.70
2023-03-29T00:42:46.851Z,97443.66
2023-03-29T00:45:21.974Z,97443.13
2023-03-29T00:47:57.086Z,97448.14
2023-03-29T00:50:36.337Z,97452.86
2023-03-29T00:53:21.627Z,97453.50
2023-03-29T00:55:54.742Z,97457.49
2023-03-29T00:58:32.174Z,97457.25
2023-03-29T01:01:10.979Z,97462.73
2023-03-29T01:03:47.129Z,97462.36
2023-03-29T01:06:19.011Z,97461.92
2023-03-29T01:08:56.428Z,97470.52
2023-03-29T01:11:29.135Z,97470.51
2023-03-29T01:14:02.758Z,97475.27
2023-03-29T01:16:33.524Z,97475.70
2023-03-29T01:19:02.365Z,97473.82
2023-03-29T01:21:51.638Z,97477.20
2023-03-29T01:24:42.129Z,97476.42
2023-03-29T01:27:50.150Z,97475.66
2023-03-29T01:30:23.584Z,97472.70
2023-03-29T01:32:59.225Z,97471.06
2023-03-29T01:35:42.729Z,97476.98
2023-03-29T01:38:18.587Z,97476.67
2023-03-29T01:40:46.566Z,97476.23
2023-03-29T01:43:36.310Z,97479.15
2023-03-29T01:46:22.908Z,97482.85
2023-03-29T01:48:56.679Z,97481.16
2023-03-29T01:51:37.895Z,97478.58
2023-03-29T01:54:18.517Z,97476.83
2023-03-29T01:56:49.664Z,97481.02
2023-03-29T01:59:22.946Z,97486.17
2023-03-29T02:01:55.439Z,97487.02
2023-03-29T02:04:29.207Z,97485.70
2023-03-29T02:07:00.709Z,97482.70
2023-03-29T02:09:30.336Z,97487.71
2023-03-29T02:12:01.071Z,97476.27
2023-03-29T02:14:30.449Z,97478.76
2023-03-29T02:17:18.807Z,97480.98
2023-03-29T02:19:50.482Z,97483.40
2023-03-29T02:22:24.648Z,97482.38
2023-03-29T02:24:59.286Z,97487.08
2023-03-29T02:27:29.661Z,97491.48
2023-03-29T02:29:58.346Z,97489.38
2023-03-29T02:32:52.465Z,97492.06
2023-03-29T02:35:51.226Z,97496.80
2023-03-29T02:38:20.841Z,97501.70
2023-03-29T02:40:48.932Z,97503.05
2023-03-29T02:43:17.135Z,97505.80
2023-03-29T02:45:46.018Z,97510.13
2023-03-29T02:48:18.785Z,97507.27
2023-03-29T02:50:50.498Z,97513.08
2023-03-29T02:53:24.165Z,97515.63
2023-03-29T02:55:52.861Z,97512.66
2023-03-29T02:58:28.724Z,97519.14
2023-03-29T03:01:01.140Z,97523.11
2023-03-29T03:03:29.322Z,97523.05
2023-03-29T03:05:57.849Z,97523.77
2023-03-29T03:08:26.240Z,97523.33
2023-03-29T03:10:54.227Z,97524.64
2023-03-29T03:13:22.244Z,97523.08
2023-03-29T03:15:50.509Z,97523.58
2023-03-29T03:18:18.353Z,97529.23
2023-03-29T03:21:01.841Z,97532.88
2023-03-29T03:23:30.441Z,97529.77
2023-03-29T03:25:59.106Z,97535.34
2023-03-29T03:28:27.469Z,97534.52
2023-03-29T03:30:55.522Z,97534.33
2023-03-29T03:33:24.182Z,97533.70
2023-03-29T03:35:52.755Z,97538.29
2023-03-29T03:38:20.662Z,97544.77
2023-03-29T03:40:58.908Z,97544.55
2023-03-29T03:43:28.210Z,97552.02
2023-03-29T03:45:56.489Z,97556.17
2023-03-29T03:48:25.307Z,97556.54
2023-03-29T03:50:58.384Z,97563.64
2023-03-29T03:53:27.429Z,97561.13
2023-03-29T03:55:58.516Z,97563.28
2023-03-29T03:58:27.195Z,97562.14
2023-03-29T04:00:55.098Z,97565.89
2023-03-29T04:03:24.149Z,97568.86
2023-03-29T04:05:52.311Z,97569.70
2023-03-29T04:08:22.558Z,97572.79
2023-03-29T04:10:56.876Z,97573.36
2023-03-29T04:13:25.839Z,97579.16
2023-03-29T04:15:55.774Z,97581.88
2023-03-29T04:18:24.405Z,97581.05
2023-03-29T04:20:52.422Z,97581.89
2023-03-29T04:23:20.400Z,97587.42
2023-03-29T04:25:48.322Z,97586.52
2023-03-29T04:28:16.243Z,97587.36
2023-03-29T04:30:46.587Z,97592.71
2023-03-29T04:33:14.775Z,97596.41
2023-03-29T04:35:42.809Z,97590.01
2023-03-29T04:38:11.463Z,97597.12
2023-03-29T04:40:39.671Z,97605.29
2023-03-29T04:43:07.599Z,97609.71
2023-03-29T04:45:35.483Z,97612.15
2023-03-29T04:48:03.510Z,97618.23
2023-03-29T04:50:32.079Z,97617.27
2023-03-29T04:53:00.389Z,97621.58
2023-03-29T04:55:28.306Z,97622.84
2023-03-29T04:57:56.154Z,97624.61
2023-03-29T05:00:27.322Z,97624.15
2023-03-29T05:02:55.499Z,97627.13
2023-03-29T05:05:24.504Z,97628.38
2023-03-29T05:07:52.961Z,97630.52
2023-03-29T05:10:20.872Z,97635.73
2023-03-29T05:12:53.932Z,97634.23
2023-03-29T05:15:22.075Z,97638.39
2023-03-29T05:17:50.137Z,97641.84
2023-03-29T05:20:18.231Z,97641.16
2023-03-29T05:22:46.108Z,97643.05
2023-03-29T05:25:14.184Z,97644.66
2023-03-29T05:27:42.691Z,97645.42
2023-03-29T05:30:11.672Z,97646.80
2023-03-29T05:32:39.688Z,97650.69
2023-03-29T05:35:08.445Z,97648.52
2023-03-29T05:37:36.992Z,97651.30
2023-03-29T05:40:08.518Z,97652.44
2023-03-29T05:42:38.033Z,97652.95
2023-03-29T05:45:06.837Z,97654.35
2023-03-29T05:47:34.637Z,97659.49
2023-03-29T05:50:02.480Z,97657.36
2023-03-29T05:52:30.848Z,97659.63
2023-03-29T05:54:58.733Z,97662.59
2023-03-29T05:57:28.693Z,97665.07
2023-03-29T05:59:57.052Z,97657.89
2023-03-29T06:02:25.906Z,97663.66
2023-03-29T06:04:54.222Z,97667.98
2023-03-29T06:07:23.597Z,97671.14
2023-03-29T06:09:51.814Z,97671.02
2023-03-29T06:12:21.060Z,97674.72
2023-03-29T06:14:49.561Z,97676.05
2023-03-29T06:17:17.570Z,97683.23
2023-03-29T06:19:45.600Z,97682.09
2023-03-29T06:22:14.905Z,97685.91
2023-03-29T06:24:43.096Z,97684.55
2023-03-29T06:27:11.326Z,97689.23
2023-03-29T06:29:39.562Z,97693.52
2023-03-29T06:32:07.766Z,97693.58
2023-03-29T06:34:38.512Z,97699.49
2023-03-29T06:37:06.619Z,97701.58
2023-03-29T06:39:34.583Z,97701.96
2023-03-29T06:42:13.066Z,97709.89
2023-03-29T06:44:49.811Z,97708.64
2023-03-29T06:47:17.792Z,97708.02
2023-03-29T06:49:45.793Z,97714.56
2023-03-29T06:52:13.849Z,97714.95
2023-03-29T06:54:42.122Z,97715.92
2023-03-29T06:57:10.531Z,97714.46
2023-03-29T06:59:38.471Z,97717.08
2023-03-29T07:02:07.411Z,97714.91
2023-03-29T07:04:35.490Z,97714.23
2023-03-29T07:07:04.206Z,97716.86
2023-03-29T07:09:34.115Z,97719.20
2023-03-29T07:12:02.616Z,97723.77
2023-03-29T07:14:31.467Z,97726.35
2023-03-29T07:17:00.000Z,97726.99
2023-03-29T07:19:30.292Z,97719.77
2023-03-29T07:21:58.770Z,97723.52
2023-03-29T07:24:26.784Z,97728.02
2023-03-29T07:27:03.499Z,97730.59
2023-03-29T07:29:32.899Z,97732.55
2023-03-29T07:32:01.007Z,97739.49
2023-03-29T07:34:30.067Z,97742.71
2023-03-29T07:36:57.897Z,97742.91
2023-03-29T07:39:26.260Z,97736.67
2023-03-29T07:41:57.555Z,97738.67
2023-03-29T07:44:27.692Z,97743.28
2023-03-29T07:46:55.650Z,97750.40
2023-03-29T07:49:23.618Z,97748.40
2023-03-29T07:51:51.598Z,97749.56
2023-03-29T07:54:20.004Z,97749.95
2023-03-29T07:56:48.124Z,97747.47
2023-03-29T07:59:16.612Z,97751.38
2023-03-29T08:01:44.847Z,97755.92
2023-03-29T08:04:12.798Z,97753.05
2023-03-29T08:06:40.750Z,97753.90
2023-03-29T08:09:08.813Z,97757.48
2023-03-29T08:11:39.771Z,97759.64
2023-03-29T08:14:09.093Z,97764.00
2023-03-29T08:16:37.170Z,97760.11
2023-03-29T08:19:05.288Z,97762.98
2023-03-29T08:21:33.199Z,97766.74
2023-03-29T08:24:01.207Z,97764.41
2023-03-29T08:26:29.173Z,97766.38
2023-03-29T08:28:57.179Z,97763.08
2023-03-29T08:31:25.193Z,97763.99
2023-03-29T08:33:53.365Z,97767.27
2023-03-29T08:36:21.297Z,97767.02
2023-03-29T08:38:50.541Z,97760.95
2023-03-29T08:41:52.344Z,97760.87
2023-03-29T08:44:43.791Z,97763.44
2023-03-29T08:47:36.815Z,97765.73
2023-03-29T08:50:06.743Z,97770.64
2023-03-29T08:52:36.797Z,97767.13
2023-03-29T08:55:13.954Z,97772.95
2023-03-29T08:57:48.093Z,97769.00
2023-03-29T09:00:51.321Z,97769.14
2023-03-29T09:03:23.685Z,97769.89
2023-03-29T09:06:00.013Z,97770.57
2023-03-29T09:08:27.961Z,97778.77
2023-03-29T09:11:12.724Z,97778.20
2023-03-29T09:14:12.754Z,97777.88
2023-03-29T09:17:17.170Z,97770.85
2023-03-29T09:19:54.274Z,97771.42
2023-03-29T09:22:51.056Z,97774.52
2023-03-29T09:25:25.303Z,97779.92
2023-03-29T09:28:11.544Z,97775.17
2023-03-29T09:30:44.860Z,97773.11
2023-03-29T09:33:24.661Z,97782.55
2023-03-29T09:36:09.343Z,97771.98
2023-03-29T09:38:42.782Z,97774.18
2023-03-29T09:41:35.933Z,97771.62
2023-03-29T09:44:23.987Z,97771.31
2023-03-29T09:47:06.205Z,97756.48
2023-03-29T09:49:39.989Z,97760.27
2023-03-29T09:52:14.141Z,97764.48
2023-03-29T09:54:42.763Z,97761.77
2023-03-29T09:57:16.906Z,97760.41
2023-03-29T09:59:47.341Z,97760.27
2023-03-29T10:02:15.600Z,97761.05
2023-03-29T10:04:43.531Z,97754.86
2023-03-29T10:07:20.586Z,97754.25
2023-03-29T10:09:50.648Z,97756.61
2023-03-29T10:12:20.047Z,97762.33
2023-03-29T10:14:54.287Z,97760.95
2023-03-29T10:17:25.235Z,97759.34
2023-03-29T10:19:58.238Z,97755.55
2023-03-29T10:22:32.499Z,97763.46
2023-03-29T10:25:00.757Z,97762.74
2023-03-29T10:27:31.113Z,97762.05
2023-03-29T10:30:07.462Z,97762.45
2023-03-29T10:32:37.082Z,97767.41
2023-03-29T10:35:13.801Z,97761.69
2023-03-29T10:37:43.669Z,97754.28
2023-03-29T10:40:51.873Z,97757.08
2023-03-29T10:43:19.813Z,97760.34
2023-03-29T10:45:54.347Z,97764.75
2023-03-29T10:48:29.907Z,97759.04
2023-03-29T10:51:01.375Z,97755.32
2023-03-29T10:53:36.535Z,97754.16
2023-03-29T10:56:29.364Z,97753.71
2023-03-29T10:59:18.852Z,97754.52
2023-03-29T11:02:14.168Z,97751.17
2023-03-29T11:04:57.299Z,97742.39
2023-03-29T11:07:48.364Z,97743.83
2023-03-29T11:10:34.795Z,97737.52
2023-03-29T11:13:21.042Z,97729.77
2023-03-29T11:16:07.355Z,97729.81
2023-03-29T11:18:56.834Z,97732.55
2023-03-29T11:21:39.709Z,97730.19
2023-03-29T11:24:29.649Z,97725.47
2023-03-29T11:27:31.342Z,97719.40
2023-03-29T11:30:27.054Z,97718.61
2023-03-29T11:33:07.301Z,97716.52
2023-03-29T11:35:48.435Z,97717.07
2023-03-29T11:38:22.919Z,97722.17
2023-03-29T11:40:55.261Z,97714.72
2023-03-29T11:43:49.019Z,97713.55
2023-03-29T11:46:23.534Z,97719.86
2023-03-29T11:49:30.112Z,97715.33
2023-03-29T11:52:17.796Z,97716.48
2023-03-29T11:54:45.749Z,97716.49
2023-03-29T11:57:38.271Z,97712.14
2023-03-29T12:00:16.179Z,97704.83
2023-03-29T12:03:25.119Z,97703.34
2023-03-29T12:06:05.061Z,97711.30
2023-03-29T12:08:41.336Z,97706.27
2023-03-29T12:11:34.352Z,97701.04
2023-03-29T12:14:21.375Z,97700.36
2023-03-29T12:16:53.536Z,97712.25
2023-03-29T12:19:30.885Z,97709.77
2023-03-29T12:22:00.661Z,97707.16
2023-03-29T12:24:32.644Z,97710.62
2023-03-29T12:27:31.454Z,97706.01
2023-03-29T12:30:05.567Z,97723.56
2023-03-29T12:32:49.470Z,97724.77
2023-03-29T12:35:26.649Z,97722.11
2023-03-29T12:38:21.653Z,97717.41
2023-03-29T12:40:57.219Z,97721.82
2023-03-29T12:43:31.474Z,97711.08
2023-03-29T12:46:08.739Z,97708.09
2023-03-29T12:48:40.345Z,97707.17
2023-03-29T12:51:13.723Z,97701.77
2023-03-29T12:53:50.986Z,97706.75
2023-03-29T12:56:24.186Z,97701.98
2023-03-29T12:59:10.826Z,97695.08
2023-03-29T13:01:41.568Z,97696.48
2023-03-29T13:04:18.557Z,97693.77
2023-03-29T13:06:46.648Z,97693.09
2023-03-29T13:09:42.774Z,97692.60
2023-03-29T13:12:10.642Z,97691.00
2023-03-29T13:14:43.885Z,97689.52
2023-03-29T13:17:27.601Z,97683.09
2023-03-29T13:20:11.082Z,97683.11
2023-03-29T13:22:54.069Z,97680.23
2023-03-29T13:25:37.196Z,97682.95
2023-03-29T13:28:17.162Z,97681.91
2023-03-29T13:31:06.300Z,97678.99
2023-03-29T13:33:52.606Z,97685.27
2023-03-29T13:36:42.373Z,97685.88
2023-03-29T13:39:22.643Z,97686.55
2023-03-29T13:41:54.331Z,97681.57
2023-03-29T13:44:22.221Z,97682.23
2023-03-29T13:47:06.503Z,97685.01
2023-03-29T13:49:35.497Z,97685.08
2023-03-29T13:52:16.352Z,97675.27
2023-03-29T13:54:58.055Z,97678.23
2023-03-29T13:57:35.025Z,97678.91
2023-03-29T14:00:17.946Z,97676.16
2023-03-29T14:02:58.228Z,97681.10
2023-03-29T14:05:32.096Z,97676.91
2023-03-29T14:08:06.956Z,97671.77
2023-03-29T14:10:42.132Z,97674.49
2023-03-29T14:13:14.872Z,97678.16
2023-03-29T14:15:50.741Z,97679.15
2023-03-29T14:18:22.850Z,97673.89
2023-03-29T14:20:56.227Z,97680.48
2023-03-29T14:23:28.052Z,97677.86
2023-03-29T14:26:06.083Z,97675.80
2023-03-29T14:28:33.991Z,97677.88
2023-03-29T14:31:02.148Z,97681.87
2023-03-29T14:33:34.718Z,97684.55
2023-03-29T14:36:04.730Z,97684.89
2023-03-29T14:38:36.346Z,97683.39
2023-03-29T14:41:04.953Z,97680.19
2023-03-29T14:43:33.092Z,97681.24
2023-03-29T14:46:09.341Z,97679.14
2023-03-29T14:48:38.090Z,97676.30
2023-03-29T14:51:06.581Z,97672.67
2023-03-29T14:53:38.069Z,97675.26
2023-03-29T14:56:07.706Z,97678.55
2023-03-29T14:58:36.424Z,97678.02
2023-03-29T15:01:17.980Z,97676.12
2023-03-29T15:04:10.300Z,97673.47
2023-03-29T15:06:41.760Z,97676.10
2023-03-29T15:09:24.925Z,97675.97
2023-03-29T15:11:55.648Z,97676.82
2023-03-29T15:14:27.020Z,97680.42
2023-03-29T15:17:03.192Z,97680.45
2023-03-29T15:19:31.937Z,97677.55
2023-03-29T15:22:06.115Z,97679.50
2023-03-29T15:24:34.196Z,97682.67
2023-03-29T15:27:11.242Z,97683.55
2023-03-29T15:29:42.369Z,97681.69
2023-03-29T15:32:20.624Z,97678.92
2023-03-29T15:34:58.806Z,97678.05
2023-03-29T15:37:27.564Z,97674.19
2023-03-29T15:39:56.463Z,97679.36
2023-03-29T15:42:25.729Z,97679.46
2023-03-29T15:44:55.117Z,97688.85
2023-03-29T15:47:24.076Z,97687.41
2023-03-29T15:49:52.075Z,97682.80
2023-03-29T15:52:19.917Z,97685.16
2023-03-29T15:54:47.839Z,97689.31
2023-03-29T15:57:16.281Z,97686.52
2023-03-29T15:59:44.820Z,97687.67
2023-03-29T16:02:20.314Z,97685.05
2023-03-29T16:04:48.226Z,97686.55
2023-03-29T16:07:18.672Z,97684.94
2023-03-29T16:09:47.043Z,97688.39
2023-03-29T16:12:17.458Z,97688.88
2023-03-29T16:14:45.835Z,97691.97
2023-03-29T16:17:14.261Z,97694.89
2023-03-29T16:19:42.432Z,97694.39
2023-03-29T16:22:10.555Z,97693.09
2023-03-29T16:24:39.053Z,97687.39
2023-03-29T16:27:07.150Z,97691.57
2023-03-29T16:29:35.366Z,97690.59
2023-03-29T16:32:05.471Z,97693.33
2023-03-29T16:34:36.209Z,97694.14
2023-03-29T16:37:04.181Z,97694.60
2023-03-29T16:39:32.269Z,97699.33
2023-03-29T16:42:00.262Z,97701.61
2023-03-29T16:44:28.156Z,97705.63
2023-03-29T16:46:58.464Z,97710.86
2023-03-29T16:49:26.664Z,97712.67
2023-03-29T16:51:54.700Z,97714.72
2023-03-29T16:54:25.928Z,97712.21
2023-03-29T16:56:54.364Z,97712.59
2023-03-29T16:59:22.515Z,97718.11
2023-03-29T17:01:53.385Z,97719.69
2023-03-29T17:04:21.361Z,97721.30
2023-03-29T17:06:49.487Z,97727.58
2023-03-29T17:09:17.785Z,97732.65
2023-03-29T17:11:46.413Z,97731.25
2023-03-29T17:14:14.668Z,97733.63
2023-03-29T17:16:42.669Z,97736.23
2023-03-29T17:19:10.738Z,97738.96
2023-03-29T17:21:38.719Z,97744.58
2023-03-29T17:24:07.046Z,97744.50
2023-03-29T17:26:35.599Z,97744.02
2023-03-29T17:29:04.509Z,97748.95
2023-03-29T17:31:34.857Z,97750.61
2023-03-29T17:34:03.488Z,97752.97
2023-03-29T17:36:34.038Z,97754.01
2023-03-29T17:39:02.840Z,97756.21
2023-03-29T17:41:31.239Z,97754.67
2023-03-29T17:43:59.720Z,97753.11
2023-03-29T17:46:27.939Z,97753.97
2023-03-29T17:48:56.145Z,97756.41
2023-03-29T17:51:24.597Z,97760.70
2023-03-29T17:53:52.984Z,97763.54
2023-03-29T17:56:21.837Z,97766.71
2023-03-29T17:58:50.673Z,97770.31
2023-03-29T18:01:21.080Z,97774.96
2023-03-29T18:03:49.043Z,97781.77
2023-03-29T18:06:19.608Z,97782.19
2023-03-29T18:08:47.898Z,97780.91
2023-03-29T18:11:22.933Z,97783.08
2023-03-29T18:13:54.911Z,97782.78
2023-03-29T18:16:23.527Z,97785.68
2023-03-29T18:18:52.041Z,97792.16
2023-03-29T18:21:21.293Z,97797.79
2023-03-29T18:23:50.069Z,97801.89
2023-03-29T18:26:18.450Z,97803.90
2023-03-29T18:28:50.843Z,97804.56
2023-03-29T18:31:20.157Z,97808.20
2023-03-29T18:33:48.352Z,97810.07
2023-03-29T18:36:16.871Z,97811.73
2023-03-29T18:38:44.997Z,97811.70
2023-03-29T18:41:15.555Z,97810.54
2023-03-29T18:43:44.338Z,97811.41
2023-03-29T18:46:14.986Z,97807.67
2023-03-29T18:48:44.793Z,97810.63
2023-03-29T18:51:15.133Z,97814.52
2023-03-29T18:53:44.404Z,97813.76
2023-03-29T18:56:12.418Z,97814.52
2023-03-29T18:58:40.308Z,97813.73
2023-03-29T19:01:11.120Z,97815.32
2023-03-29T19:03:39.622Z,97820.42
2023-03-29T19:06:08.023Z,97823.27
2023-03-29T19:08:38.747Z,97820.95
2023-03-29T19:11:08.852Z,97824.29
2023-03-29T19:13:38.751Z,97825.56
2023-03-29T19:16:07.041Z,97822.95
2023-03-29T19:18:35.287Z,97827.55
2023-03-29T19:21:03.514Z,97826.80
2023-03-29T19:23:31.521Z,97826.16
2023-03-29T19:26:02.872Z,97826.50
2023-03-29T19:28:32.585Z,97825.58
2023-03-29T19:31:02.642Z,97826.99
2023-03-29T19:33:30.734Z,97834.88
2023-03-29T19:35:58.781Z,97836.08
2023-03-29T19:38:27.184Z,97835.29
2023-03-29T19:40:55.093Z,97834.66
2023-03-29T19:43:24.895Z,97834.61
2023-03-29T19:45:52.772Z,97830.77
2023-03-29T19:48:23.407Z,97831.98
2023-03-29T19:50:52.242Z,97832.60
2023-03-29T19:53:20.128Z,97828.91
2023-03-29T19:55:49.498Z,97825.64
2023-03-29T19:58:17.432Z,97826.05
2023-03-29T20:00:45.339Z,97825.05
2023-03-29T20:03:14.026Z,97824.11
2023-03-29T20:05:42.376Z,97822.34
2023-03-29T20:08:10.400Z,97825.56
2023-03-29T20:10:38.464Z,97824.27
2023-03-29T20:13:06.770Z,97825.80
2023-03-29T20:15:35.230Z,97824.83
2023-03-29T20:18:03.542Z,97827.84
2023-03-29T20:20:31.907Z,97822.66
2023-03-29T20:23:04.682Z,97820.65
2023-03-29T20:25:35.682Z,97821.60
2023-03-29T20:28:04.790Z,97820.11
2023-03-29T20:30:32.986Z,97816.39
2023-03-29T20:33:01.088Z,97813.02
2023-03-29T20:35:29.193Z,97808.81
2023-03-29T20:37:57.194Z,97809.27
2023-03-29T20:40:25.132Z,97810.99
2023-03-29T20:42:54.356Z,97810.48
2023-03-29T20:45:22.297Z,97808.56
2023-03-29T20:47:57.712Z,97809.41
2023-03-29T20:50:26.462Z,97807.17
2023-03-29T20:52:55.830Z,97805.42
2023-03-29T20:55:24.249Z,97803.21
2023-03-29T20:57:59.488Z,97802.52
2023-03-29T21:00:30.255Z,97804.60
2023-03-29T21:03:01.309Z,97802.45
2023-03-29T21:05:32.211Z,97801.27
2023-03-29T21:08:00.731Z,97804.06
2023-03-29T21:10:29.711Z,97804.81
2023-03-29T21:13:02.723Z,97807.04
2023-03-29T21:15:32.110Z,97808.73
2023-03-29T21:18:00.225Z,97807.83
2023-03-29T21:20:28.151Z,97805.58
2023-03-29T21:22:56.061Z,97809.73
2023-03-29T21:25:24.081Z,97814.91
2023-03-29T21:27:52.118Z,97813.33
2023-03-29T21:30:20.121Z,97817.48
2023-03-29T21:32:48.067Z,97822.82
2023-03-29T21:35:16.047Z,97825.73
2023-03-29T21:37:43.906Z,97828.40
2023-03-29T21:40:12.719Z,97826.73
2023-03-29T21:42:40.654Z,97828.34
2023-03-29T21:45:09.753Z,97826.45
2023-03-29T21:47:37.823Z,97825.17
2023-03-29T21:50:09.461Z,97822.30
2023-03-29T21:52:37.855Z,97819.63
2023-03-29T21:55:06.698Z,97815.26
2023-03-29T21:57:34.681Z,97815.27
2023-03-29T22:00:05.524Z,97816.09
2023-03-29T22:02:33.503Z,97818.99
2023-03-29T22:05:01.619Z,97820.59
2023-03-29T22:07:29.620Z,97820.34
2023-03-29T22:09:58.865Z,97823.05
2023-03-29T22:12:27.231Z,97825.98
2023-03-29T22:14:55.145Z,97824.93
2023-03-29T22:17:26.847Z,97828.92
2023-03-29T22:19:57.260Z,97825.77
2023-03-29T22:22:25.742Z,97825.46
2023-03-29T22:24:54.862Z,97828.48
2023-03-29T22:27:23.179Z,97828.10
2023-03-29T22:29:51.306Z,97823.42
2023-03-29T22:32:19.197Z,97821.85
2023-03-29T22:34:47.087Z,97816.23
2023-03-29T22:37:15.091Z,97820.58
2023-03-29T22:39:43.038Z,97823.94
2023-03-29T22:42:10.942Z,97825.52
2023-03-29T22:44:38.864Z,97823.41
2023-03-29T22:47:06.998Z,97821.84
2023-03-29T22:49:34.971Z,97826.30
2023-03-29T22:52:02.972Z,97827.42
2023-03-29T22:54:31.271Z,97827.58
2023-03-29T22:56:59.313Z,97826.99
2023-03-29T22:59:27.406Z,97820.73
2023-03-29T23:01:55.495Z,97821.29
2023-03-29T23:04:23.471Z,97821.44
2023-03-29T23:06:51.494Z,97823.89
2023-03-29T23:09:19.581Z,97826.67
2023-03-29T23:11:47.607Z,97833.95
2023-03-29T23:14:15.635Z,97833.63
2023-03-29T23:16:44.055Z,97834.08
2023-03-29T23:19:12.045Z,97834.85
2023-03-29T23:21:40.966Z,97834.33
2023-03-29T23:24:08.910Z,97829.48
2023-03-29T23:26:37.620Z,97829.62
2023-03-29T23:29:05.605Z,97830.30
2023-03-29T23:31:34.096Z,97830.73
2023-03-29T23:34:03.304Z,97829.73
2023-03-29T23:36:31.716Z,97826.95
2023-03-29T23:39:00.457Z,97828.28
2023-03-29T23:41:30.594Z,97826.21
2023-03-29T23:43:58.745Z,97829.14
2023-03-29T23:46:26.850Z,97832.15
2023-03-29T23:48:55.484Z,97832.34
2023-03-29T23:51:28.849Z,97824.14
2023-03-29T23:53:57.117Z,97823.32
2023-03-29T23:56:25.244Z,97825.52
2023-03-29T23:58:53.551Z,97823.83
